createdAt,value
2017-06-30T00:00:01.218Z,86.84
2017-06-30T00:00:05.433Z,86.46
2017-06-30T00:00:09.877Z,86.84
2017-06-30T00:00:14.325Z,86.74
2017-06-30T00:00:18.775Z,86.46
2017-06-30T00:00:23.226Z,86.46
2017-06-30T00:00:27.550Z,86.55
2017-06-30T00:00:31.982Z,86.84
2017-06-30T00:00:36.419Z,86.46
2017-06-30T00:00:40.878Z,86.94
2017-06-30T00:00:45.329Z,86.94
2017-06-30T00:00:49.792Z,86.84
2017-06-30T00:00:54.124Z,86.65
2017-06-30T00:00:58.575Z,87.23
2017-06-30T00:01:02.565Z,87.23
2017-06-30T00:01:07.035Z,87.03
2017-06-30T00:01:11.480Z,87.03
2017-06-30T00:01:15.926Z,87.03
2017-06-30T00:01:20.372Z,86.84
2017-06-30T00:01:24.825Z,87.03
2017-06-30T00:01:29.281Z,87.13
2017-06-30T00:01:33.735Z,86.74
2017-06-30T00:01:38.178Z,86.74
2017-06-30T00:01:42.629Z,86.55
2017-06-30T00:01:46.959Z,86.94
2017-06-30T00:01:51.412Z,86.94
2017-06-30T00:01:55.844Z,86.84
2017-06-30T00:02:00.058Z,86.55
2017-06-30T00:02:04.271Z,86.55
2017-06-30T00:02:08.730Z,86.94
2017-06-30T00:02:13.174Z,86.55
2017-06-30T00:02:17.611Z,86.74
2017-06-30T00:02:22.051Z,86.55
2017-06-30T00:02:26.496Z,86.74
2017-06-30T00:02:30.829Z,86.84
2017-06-30T00:02:35.259Z,86.36
2017-06-30T00:02:39.708Z,86.74
2017-06-30T00:02:44.144Z,87.03
2017-06-30T00:02:48.598Z,87.03
2017-06-30T00:02:52.683Z,86.94
2017-06-30T00:02:56.903Z,87.13
2017-06-30T00:03:01.352Z,86.84
2017-06-30T00:03:05.795Z,86.94
2017-06-30T00:03:10.128Z,87.03
2017-06-30T00:03:14.558Z,86.74
2017-06-30T00:03:19.002Z,87.23
2017-06-30T00:03:23.445Z,87.32
2017-06-30T00:03:27.653Z,87.23
2017-06-30T00:03:32.085Z,87.03
2017-06-30T00:03:36.527Z,87.03
2017-06-30T00:03:40.988Z,87.41
2017-06-30T00:03:45.434Z,87.51
2017-06-30T00:03:49.871Z,87.41
2017-06-30T00:03:54.201Z,87.32
2017-06-30T00:03:58.655Z,87.51
2017-06-30T00:04:03.332Z,87.51
2017-06-30T00:04:07.787Z,87.23
2017-06-30T00:04:12.239Z,87.41
2017-06-30T00:04:16.687Z,87.51
2017-06-30T00:04:21.127Z,87.51
2017-06-30T00:04:25.464Z,87.41
2017-06-30T00:04:29.790Z,87.41
2017-06-30T00:04:34.248Z,87.41
2017-06-30T00:04:38.703Z,87.23
2017-06-30T00:04:43.038Z,87.32
2017-06-30T00:04:47.480Z,87.32
2017-06-30T00:04:51.925Z,87.23
2017-06-30T00:04:56.261Z,87.23
2017-06-30T00:05:00.706Z,87.23
2017-06-30T00:05:05.024Z,87.61
2017-06-30T00:05:09.474Z,87.23
2017-06-30T00:05:13.941Z,87.32
2017-06-30T00:05:18.415Z,87.32
2017-06-30T00:05:22.741Z,87.32
2017-06-30T00:05:27.175Z,87.7
2017-06-30T00:05:31.617Z,87.41
2017-06-30T00:05:36.058Z,87.23
2017-06-30T00:05:40.512Z,87.32
2017-06-30T00:05:44.865Z,87.41
2017-06-30T00:05:49.298Z,87.32
2017-06-30T00:05:53.751Z,87.61
2017-06-30T00:05:58.083Z,87.51
2017-06-30T00:06:02.486Z,87.41
2017-06-30T00:06:06.812Z,87.41
2017-06-30T00:06:11.268Z,87.51
2017-06-30T00:06:15.720Z,87.41
2017-06-30T00:06:20.183Z,87.61
2017-06-30T00:06:24.639Z,87.61
2017-06-30T00:06:28.975Z,87.7
2017-06-30T00:06:33.432Z,87.32
2017-06-30T00:06:37.769Z,87.23
2017-06-30T00:06:42.211Z,87.41
2017-06-30T00:06:46.422Z,87.51
2017-06-30T00:06:50.882Z,87.61
2017-06-30T00:06:55.203Z,87.32
2017-06-30T00:06:59.645Z,87.41
2017-06-30T00:07:03.848Z,87.51
2017-06-30T00:07:08.313Z,87.51
2017-06-30T00:07:12.773Z,87.41
2017-06-30T00:07:17.233Z,87.41
2017-06-30T00:07:21.677Z,87.41
2017-06-30T00:07:26.138Z,87.32
2017-06-30T00:07:30.480Z,87.51
2017-06-30T00:07:34.924Z,87.41
2017-06-30T00:07:38.916Z,87.32
2017-06-30T00:07:43.353Z,87.32
2017-06-30T00:07:47.800Z,87.23
2017-06-30T00:07:52.243Z,87.41
2017-06-30T00:07:56.697Z,87.32
2017-06-30T00:08:01.148Z,87.32
2017-06-30T00:08:05.721Z,87.23
2017-06-30T00:08:10.059Z,87.94
2017-06-30T00:08:14.542Z,87.51
2017-06-30T00:08:18.971Z,87.7
2017-06-30T00:08:23.431Z,87.23
2017-06-30T00:08:27.806Z,87.32
2017-06-30T00:08:32.265Z,87.9
2017-06-30T00:08:36.605Z,87.9
2017-06-30T00:08:41.044Z,87.8
2017-06-30T00:08:45.483Z,87.99
2017-06-30T00:08:49.919Z,87.9
2017-06-30T00:08:54.362Z,87.99
2017-06-30T00:08:58.823Z,87.8
2017-06-30T00:09:03.277Z,87.32
2017-06-30T00:09:07.732Z,87.8
2017-06-30T00:09:12.168Z,87.8
2017-06-30T00:09:16.624Z,87.99
2017-06-30T00:09:21.119Z,87.9
2017-06-30T00:09:25.557Z,87.9
2017-06-30T00:09:30.019Z,87.8
2017-06-30T00:09:34.116Z,87.9
2017-06-30T00:09:38.597Z,87.9
2017-06-30T00:09:43.045Z,87.8
2017-06-30T00:09:47.487Z,87.9
2017-06-30T00:09:51.923Z,87.8
2017-06-30T00:09:56.364Z,87.61
2017-06-30T00:10:00.821Z,87.61
2017-06-30T00:10:05.339Z,87.9
2017-06-30T00:10:09.772Z,87.51
2017-06-30T00:10:14.093Z,87.61
2017-06-30T00:10:18.534Z,87.7
2017-06-30T00:10:22.993Z,87.61
2017-06-30T00:10:27.323Z,87.51
2017-06-30T00:10:31.545Z,87.61
2017-06-30T00:10:35.880Z,87.8
2017-06-30T00:10:40.328Z,87.41
2017-06-30T00:10:44.783Z,87.7
2017-06-30T00:10:49.233Z,87.7
2017-06-30T00:10:53.678Z,87.9
2017-06-30T00:10:58.126Z,87.99
2017-06-30T00:11:02.686Z,87.8
2017-06-30T00:11:07.188Z,87.8
2017-06-30T00:11:11.627Z,87.9
2017-06-30T00:11:16.073Z,87.99
2017-06-30T00:11:20.537Z,87.99
2017-06-30T00:11:24.982Z,87.8
2017-06-30T00:11:29.466Z,87.9
2017-06-30T00:11:33.926Z,87.61
2017-06-30T00:11:38.365Z,87.8
2017-06-30T00:11:42.816Z,87.8
2017-06-30T00:11:47.267Z,87.99
2017-06-30T00:11:51.750Z,87.8
2017-06-30T00:11:56.192Z,87.8
2017-06-30T00:12:00.523Z,87.99
2017-06-30T00:12:04.889Z,87.99
2017-06-30T00:12:09.350Z,87.7
2017-06-30T00:12:13.806Z,88.09
2017-06-30T00:12:18.256Z,88.37
2017-06-30T00:12:22.682Z,87.99
2017-06-30T00:12:27.131Z,87.9
2017-06-30T00:12:31.351Z,88.56
2017-06-30T00:12:35.794Z,88.56
2017-06-30T00:12:40.252Z,88.56
2017-06-30T00:12:44.718Z,87.9
2017-06-30T00:12:49.184Z,87.9
2017-06-30T00:12:53.635Z,87.99
2017-06-30T00:12:58.078Z,87.9
2017-06-30T00:13:02.529Z,88.09
2017-06-30T00:13:07.005Z,87.9
2017-06-30T00:13:11.459Z,88.09
2017-06-30T00:13:15.906Z,87.7
2017-06-30T00:13:20.224Z,87.7
2017-06-30T00:13:24.552Z,87.99
2017-06-30T00:13:28.988Z,87.7
2017-06-30T00:13:33.190Z,87.9
2017-06-30T00:13:37.420Z,87.7
2017-06-30T00:13:41.863Z,87.7
2017-06-30T00:13:46.306Z,87.8
2017-06-30T00:13:50.749Z,87.9
2017-06-30T00:13:55.191Z,87.8
2017-06-30T00:13:59.547Z,87.9
2017-06-30T00:14:04.545Z,87.7
2017-06-30T00:14:08.983Z,87.7
2017-06-30T00:14:13.435Z,87.7
2017-06-30T00:14:17.880Z,87.9
2017-06-30T00:14:22.341Z,87.9
2017-06-30T00:14:26.533Z,88.56
2017-06-30T00:14:30.859Z,88.66
2017-06-30T00:14:35.204Z,88.56
2017-06-30T00:14:39.526Z,88.18
2017-06-30T00:14:44.007Z,88.37
2017-06-30T00:14:48.457Z,88.47
2017-06-30T00:14:52.908Z,88.37
2017-06-30T00:14:57.367Z,88.28
2017-06-30T00:15:02.019Z,88.37
2017-06-30T00:15:06.365Z,88.18
2017-06-30T00:15:10.789Z,88.37
2017-06-30T00:15:15.221Z,87.99
2017-06-30T00:15:19.671Z,87.9
2017-06-30T00:15:24.054Z,88.18
2017-06-30T00:15:28.383Z,88.18
2017-06-30T00:15:32.838Z,88.18
2017-06-30T00:15:37.285Z,88.18
2017-06-30T00:15:41.751Z,88.09
2017-06-30T00:15:46.205Z,88.28
2017-06-30T00:15:50.653Z,88.28
2017-06-30T00:15:55.105Z,88.37
2017-06-30T00:15:59.558Z,88.18
2017-06-30T00:16:04.074Z,88.18
2017-06-30T00:16:08.416Z,88.09
2017-06-30T00:16:12.860Z,88.09
2017-06-30T00:16:17.318Z,88.28
2017-06-30T00:16:21.763Z,88.37
2017-06-30T00:16:26.157Z,88.32
2017-06-30T00:16:30.612Z,88.18
2017-06-30T00:16:35.048Z,88.18
2017-06-30T00:16:39.384Z,88.09
2017-06-30T00:16:43.839Z,88.18
2017-06-30T00:16:48.297Z,88.18
2017-06-30T00:16:52.752Z,88.18
2017-06-30T00:16:57.205Z,88.18
2017-06-30T00:17:01.654Z,88.18
2017-06-30T00:17:06.002Z,88.09
2017-06-30T00:17:10.449Z,88.09
2017-06-30T00:17:14.897Z,88.18
2017-06-30T00:17:19.230Z,87.9
2017-06-30T00:17:23.671Z,88.28
2017-06-30T00:17:27.898Z,88.18
2017-06-30T00:17:32.364Z,88.28
2017-06-30T00:17:36.698Z,87.99
2017-06-30T00:17:41.160Z,88.09
2017-06-30T00:17:45.601Z,88.28
2017-06-30T00:17:50.044Z,88.09
2017-06-30T00:17:54.513Z,88.37
2017-06-30T00:17:58.963Z,88.37
2017-06-30T00:18:03.296Z,88.37
2017-06-30T00:18:07.761Z,87.99
2017-06-30T00:18:12.100Z,88.28
2017-06-30T00:18:16.558Z,88.66
2017-06-30T00:18:20.996Z,88.37
2017-06-30T00:18:25.440Z,88.09
2017-06-30T00:18:29.774Z,88.09
2017-06-30T00:18:33.858Z,88.66
2017-06-30T00:18:38.197Z,88.37
2017-06-30T00:18:42.629Z,88.66
2017-06-30T00:18:47.087Z,88.66
2017-06-30T00:18:51.540Z,88.47
2017-06-30T00:18:55.981Z,88.66
2017-06-30T00:19:00.425Z,88.56
2017-06-30T00:19:04.901Z,88.56
2017-06-30T00:19:09.339Z,88.37
2017-06-30T00:19:13.786Z,88.56
2017-06-30T00:19:18.109Z,88.47
2017-06-30T00:19:22.547Z,88.18
2017-06-30T00:19:26.755Z,88.56
2017-06-30T00:19:31.218Z,88.47
2017-06-30T00:19:35.666Z,88.47
2017-06-30T00:19:40.112Z,88.37
2017-06-30T00:19:44.568Z,88.56
2017-06-30T00:19:49.006Z,88.56
2017-06-30T00:19:53.463Z,88.56
2017-06-30T00:19:57.911Z,88.56
2017-06-30T00:20:02.357Z,88.66
2017-06-30T00:20:06.679Z,88.56
2017-06-30T00:20:11.014Z,88.66
2017-06-30T00:20:15.467Z,88.47
2017-06-30T00:20:19.905Z,88.56
2017-06-30T00:20:24.354Z,88.56
2017-06-30T00:20:28.561Z,88.37
2017-06-30T00:20:33.015Z,88.56
2017-06-30T00:20:37.457Z,88.47
2017-06-30T00:20:41.906Z,88.47
2017-06-30T00:20:46.354Z,88.56
2017-06-30T00:20:50.803Z,88.66
2017-06-30T00:20:55.253Z,88.66
2017-06-30T00:20:59.723Z,88.66
2017-06-30T00:21:04.272Z,88.66
2017-06-30T00:21:08.724Z,88.09
2017-06-30T00:21:13.170Z,88.56
2017-06-30T00:21:17.627Z,88.18
2017-06-30T00:21:22.078Z,88.56
2017-06-30T00:21:26.287Z,88.66
2017-06-30T00:21:30.630Z,88.66
2017-06-30T00:21:35.103Z,88.56
2017-06-30T00:21:39.420Z,88.56
2017-06-30T00:21:43.757Z,88.56
2017-06-30T00:21:48.086Z,88.47
2017-06-30T00:21:52.537Z,88.37
2017-06-30T00:21:57.000Z,88.56
2017-06-30T00:22:01.454Z,88.47
2017-06-30T00:22:05.934Z,88.47
2017-06-30T00:22:10.379Z,88.18
2017-06-30T00:22:14.825Z,88.18
2017-06-30T00:22:19.270Z,88.28
2017-06-30T00:22:23.724Z,88.37
2017-06-30T00:22:28.190Z,88.28
2017-06-30T00:22:32.504Z,88.28
2017-06-30T00:22:36.958Z,88.28
2017-06-30T00:22:41.278Z,88.28
2017-06-30T00:22:45.737Z,88.18
2017-06-30T00:22:50.072Z,88.28
2017-06-30T00:22:54.527Z,88.28
2017-06-30T00:22:58.974Z,88.37
2017-06-30T00:23:03.437Z,88.37
2017-06-30T00:23:07.777Z,88.37
2017-06-30T00:23:12.225Z,88.37
2017-06-30T00:23:16.661Z,88.47
2017-06-30T00:23:21.125Z,88.28
2017-06-30T00:23:25.580Z,88.28
2017-06-30T00:23:29.801Z,88.28
2017-06-30T00:23:34.252Z,88.47
2017-06-30T00:23:38.702Z,88.37
2017-06-30T00:23:43.171Z,88.47
2017-06-30T00:23:47.508Z,88.37
2017-06-30T00:23:51.953Z,88.47
2017-06-30T00:23:56.396Z,88.18
2017-06-30T00:24:00.841Z,88.28
2017-06-30T00:24:05.656Z,88.32
2017-06-30T00:24:10.029Z,88.28
2017-06-30T00:24:14.475Z,88.47
2017-06-30T00:24:18.918Z,88.28
2017-06-30T00:24:23.367Z,88.47
2017-06-30T00:24:27.584Z,88.28
2017-06-30T00:24:32.064Z,88.28
2017-06-30T00:24:36.406Z,88.28
2017-06-30T00:24:40.853Z,88.28
2017-06-30T00:24:45.300Z,88.76
2017-06-30T00:24:49.748Z,88.18
2017-06-30T00:24:54.197Z,88.18
2017-06-30T00:24:58.540Z,88.18
2017-06-30T00:25:02.988Z,88.66
2017-06-30T00:25:07.438Z,88.85
2017-06-30T00:25:11.899Z,88.37
2017-06-30T00:25:16.345Z,88.37
2017-06-30T00:25:20.791Z,88.56
2017-06-30T00:25:25.232Z,88.37
2017-06-30T00:25:29.680Z,88.76
2017-06-30T00:25:34.130Z,88.66
2017-06-30T00:25:38.579Z,89.04
2017-06-30T00:25:42.784Z,89.04
2017-06-30T00:25:47.223Z,89.04
2017-06-30T00:25:51.557Z,88.66
2017-06-30T00:25:56.004Z,88.66
2017-06-30T00:26:00.446Z,88.76
2017-06-30T00:26:04.914Z,88.66
2017-06-30T00:26:09.365Z,88.76
2017-06-30T00:26:13.817Z,89.14
2017-06-30T00:26:18.026Z,89.14
2017-06-30T00:26:22.480Z,89.04
2017-06-30T00:26:26.812Z,88.95
2017-06-30T00:26:31.264Z,88.95
2017-06-30T00:26:35.719Z,89.04
2017-06-30T00:26:40.052Z,88.95
2017-06-30T00:26:44.493Z,88.95
2017-06-30T00:26:48.945Z,88.95
2017-06-30T00:26:53.384Z,89.04
2017-06-30T00:26:57.841Z,89.04
2017-06-30T00:27:02.304Z,88.95
2017-06-30T00:27:06.747Z,88.85
2017-06-30T00:27:11.202Z,88.85
2017-06-30T00:27:15.648Z,88.9
2017-06-30T00:27:20.104Z,88.76
2017-06-30T00:27:24.539Z,88.85
2017-06-30T00:27:28.988Z,88.56
2017-06-30T00:27:33.307Z,88.95
2017-06-30T00:27:37.767Z,88.95
2017-06-30T00:27:42.228Z,89.04
2017-06-30T00:27:46.550Z,89.09
2017-06-30T00:27:51.013Z,88.76
2017-06-30T00:27:55.457Z,88.56
2017-06-30T00:27:59.905Z,88.56
2017-06-30T00:28:04.566Z,88.76
2017-06-30T00:28:09.013Z,88.76
2017-06-30T00:28:13.465Z,88.76
2017-06-30T00:28:17.921Z,88.85
2017-06-30T00:28:22.383Z,88.56
2017-06-30T00:28:26.827Z,88.76
2017-06-30T00:28:31.278Z,88.95
2017-06-30T00:28:35.718Z,89.14
2017-06-30T00:28:40.167Z,88.95
2017-06-30T00:28:44.599Z,89.23
2017-06-30T00:28:49.046Z,89.14
2017-06-30T00:28:53.489Z,89.23
2017-06-30T00:28:57.943Z,89.23
2017-06-30T00:29:02.757Z,89.14
2017-06-30T00:29:06.966Z,89.14
2017-06-30T00:29:11.416Z,89.14
2017-06-30T00:29:15.869Z,89.04
2017-06-30T00:29:20.317Z,88.85
2017-06-30T00:29:24.747Z,89.14
2017-06-30T00:29:29.078Z,89.33
2017-06-30T00:29:33.526Z,89.23
2017-06-30T00:29:37.968Z,89.04
2017-06-30T00:29:42.413Z,89.33
2017-06-30T00:29:46.790Z,89.23
2017-06-30T00:29:51.238Z,89.14
2017-06-30T00:29:55.681Z,89.23
2017-06-30T00:30:00.132Z,89.33
2017-06-30T00:30:04.665Z,89.14
2017-06-30T00:30:08.932Z,89.23
2017-06-30T00:30:13.367Z,89.33
2017-06-30T00:30:17.823Z,89.43
2017-06-30T00:30:22.278Z,89.23
2017-06-30T00:30:26.740Z,89.33
2017-06-30T00:30:31.076Z,89.52
2017-06-30T00:30:35.398Z,89.23
2017-06-30T00:30:39.852Z,89.23
2017-06-30T00:30:44.303Z,89.04
2017-06-30T00:30:48.762Z,89.14
2017-06-30T00:30:53.201Z,89.14
2017-06-30T00:30:57.643Z,89.23
2017-06-30T00:31:02.100Z,89.14
2017-06-30T00:31:06.563Z,89.33
2017-06-30T00:31:10.891Z,89.72
2017-06-30T00:31:15.334Z,89.43
2017-06-30T00:31:19.787Z,89.43
2017-06-30T00:31:24.225Z,89.33
2017-06-30T00:31:28.669Z,89.62
2017-06-30T00:31:33.115Z,89.52
2017-06-30T00:31:37.574Z,89.52
2017-06-30T00:31:42.019Z,89.33
2017-06-30T00:31:46.440Z,89.62
2017-06-30T00:31:50.895Z,89.62
2017-06-30T00:31:55.224Z,89.52
2017-06-30T00:31:59.670Z,89.52
2017-06-30T00:32:04.149Z,89.52
2017-06-30T00:32:08.600Z,89.52
2017-06-30T00:32:13.060Z,89.14
2017-06-30T00:32:17.498Z,89.62
2017-06-30T00:32:21.944Z,89.62
2017-06-30T00:32:26.411Z,89.62
2017-06-30T00:32:30.845Z,89.62
2017-06-30T00:32:35.306Z,89.62
2017-06-30T00:32:39.629Z,89.62
2017-06-30T00:32:44.066Z,89.62
2017-06-30T00:32:48.406Z,89.52
2017-06-30T00:32:52.861Z,89.62
2017-06-30T00:32:57.083Z,89.62
2017-06-30T00:33:01.540Z,89.81
2017-06-30T00:33:06.170Z,89.62
2017-06-30T00:33:10.489Z,89.81
2017-06-30T00:33:14.937Z,89.62
2017-06-30T00:33:19.387Z,89.52
2017-06-30T00:33:23.848Z,89.62
2017-06-30T00:33:28.309Z,89.52
2017-06-30T00:33:32.635Z,89.62
2017-06-30T00:33:37.095Z,89.62
2017-06-30T00:33:41.530Z,90
2017-06-30T00:33:45.970Z,89.72
2017-06-30T00:33:50.290Z,89.33
2017-06-30T00:33:54.738Z,89.33
2017-06-30T00:33:59.067Z,89.62
2017-06-30T00:34:03.485Z,89.62
2017-06-30T00:34:07.926Z,89.52
2017-06-30T00:34:12.380Z,90.09
2017-06-30T00:34:16.821Z,89.72
2017-06-30T00:34:21.266Z,89.72
2017-06-30T00:34:25.715Z,89.33
2017-06-30T00:34:30.158Z,89.52
2017-06-30T00:34:34.494Z,89.62
2017-06-30T00:34:38.935Z,89.52
2017-06-30T00:34:43.253Z,89.72
2017-06-30T00:34:47.720Z,90.48
2017-06-30T00:34:52.157Z,90.58
2017-06-30T00:34:56.604Z,90.39
2017-06-30T00:35:00.692Z,90.39
2017-06-30T00:35:05.232Z,90.39
2017-06-30T00:35:09.577Z,90.39
2017-06-30T00:35:14.021Z,90.39
2017-06-30T00:35:18.456Z,90
2017-06-30T00:35:22.906Z,90.09
2017-06-30T00:35:27.390Z,90.09
2017-06-30T00:35:31.842Z,90.39
2017-06-30T00:35:36.182Z,90.29
2017-06-30T00:35:40.513Z,90.29
2017-06-30T00:35:45.004Z,90.09
2017-06-30T00:35:49.470Z,90.19
2017-06-30T00:35:53.919Z,90.19
2017-06-30T00:35:58.372Z,90.29
2017-06-30T00:36:02.822Z,90.09
2017-06-30T00:36:07.332Z,90.19
2017-06-30T00:36:11.675Z,90.48
2017-06-30T00:36:16.115Z,90.29
2017-06-30T00:36:20.430Z,90
2017-06-30T00:36:24.874Z,90
2017-06-30T00:36:29.347Z,90.09
2017-06-30T00:36:33.797Z,90.09
2017-06-30T00:36:38.237Z,90.29
2017-06-30T00:36:42.675Z,90.09
2017-06-30T00:36:47.105Z,90.29
2017-06-30T00:36:51.459Z,90.48
2017-06-30T00:36:55.795Z,90.39
2017-06-30T00:37:00.121Z,90.48
2017-06-30T00:37:04.713Z,90.48
2017-06-30T00:37:09.169Z,90.58
2017-06-30T00:37:13.614Z,90.67
2017-06-30T00:37:17.951Z,90.77
2017-06-30T00:37:22.398Z,90.77
2017-06-30T00:37:26.843Z,90.77
2017-06-30T00:37:31.285Z,90.58
2017-06-30T00:37:35.772Z,90.77
2017-06-30T00:37:40.215Z,90.67
2017-06-30T00:37:44.648Z,90.67
2017-06-30T00:37:48.852Z,90.48
2017-06-30T00:37:53.173Z,90.19
2017-06-30T00:37:57.503Z,90.48
2017-06-30T00:38:02.038Z,90.48
2017-06-30T00:38:06.484Z,90.58
2017-06-30T00:38:10.924Z,90.58
2017-06-30T00:38:15.377Z,90.67
2017-06-30T00:38:19.805Z,90.77
2017-06-30T00:38:24.255Z,90.77
2017-06-30T00:38:28.702Z,90.77
2017-06-30T00:38:33.165Z,90.67
2017-06-30T00:38:37.626Z,90.77
2017-06-30T00:38:41.952Z,90.58
2017-06-30T00:38:46.391Z,90.58
2017-06-30T00:38:50.724Z,90.48
2017-06-30T00:38:55.184Z,90.48
2017-06-30T00:38:59.645Z,90.67
2017-06-30T00:39:04.109Z,90.58
2017-06-30T00:39:08.577Z,90.67
2017-06-30T00:39:13.016Z,90.29
2017-06-30T00:39:17.474Z,90.67
2017-06-30T00:39:21.970Z,90.67
2017-06-30T00:39:26.426Z,90.96
2017-06-30T00:39:30.882Z,91.05
2017-06-30T00:39:35.330Z,90.96
2017-06-30T00:39:39.819Z,90.96
2017-06-30T00:39:44.261Z,91.05
2017-06-30T00:39:48.576Z,91.05
2017-06-30T00:39:52.777Z,91.15
2017-06-30T00:39:57.228Z,90.96
2017-06-30T00:40:01.618Z,90.96
2017-06-30T00:40:05.835Z,90.96
2017-06-30T00:40:10.288Z,90.96
2017-06-30T00:40:14.732Z,91.05
2017-06-30T00:40:19.061Z,91.15
2017-06-30T00:40:23.498Z,90.96
2017-06-30T00:40:27.954Z,90.96
2017-06-30T00:40:32.408Z,90.96
2017-06-30T00:40:36.855Z,91.15
2017-06-30T00:40:41.312Z,90.96
2017-06-30T00:40:45.518Z,90.96
2017-06-30T00:40:49.965Z,90.96
2017-06-30T00:40:54.415Z,91.15
2017-06-30T00:40:58.863Z,91.15
2017-06-30T00:41:03.248Z,91.05
2017-06-30T00:41:07.703Z,90.96
2017-06-30T00:41:12.043Z,90.96
2017-06-30T00:41:16.496Z,91.25
2017-06-30T00:41:20.833Z,91.15
2017-06-30T00:41:25.288Z,90.96
2017-06-30T00:41:29.746Z,91.25
2017-06-30T00:41:34.202Z,91.15
2017-06-30T00:41:38.641Z,91.34
2017-06-30T00:41:43.087Z,91.25
2017-06-30T00:41:47.462Z,91.25
2017-06-30T00:41:51.905Z,91.34
2017-06-30T00:41:56.214Z,91.15
2017-06-30T00:42:00.664Z,90.96
2017-06-30T00:42:05.123Z,90.58
2017-06-30T00:42:09.571Z,91.15
2017-06-30T00:42:14.012Z,90.96
2017-06-30T00:42:18.462Z,90.96
2017-06-30T00:42:22.900Z,90.96
2017-06-30T00:42:27.226Z,91.15
2017-06-30T00:42:31.670Z,91.15
2017-06-30T00:42:36.114Z,91.15
2017-06-30T00:42:40.446Z,91.25
2017-06-30T00:42:44.783Z,91.05
2017-06-30T00:42:49.109Z,90.96
2017-06-30T00:42:53.565Z,91.15
2017-06-30T00:42:57.909Z,91.05
2017-06-30T00:43:02.606Z,91.05
2017-06-30T00:43:06.930Z,91.15
2017-06-30T00:43:11.377Z,90.96
2017-06-30T00:43:15.842Z,91.05
2017-06-30T00:43:20.282Z,91.05
2017-06-30T00:43:24.718Z,91.05
2017-06-30T00:43:29.172Z,90.96
2017-06-30T00:43:33.623Z,91.05
2017-06-30T00:43:37.954Z,91.15
2017-06-30T00:43:42.270Z,91.15
2017-06-30T00:43:46.721Z,91.05
2017-06-30T00:43:51.186Z,90.96
2017-06-30T00:43:55.639Z,91.05
2017-06-30T00:43:59.956Z,90.86
2017-06-30T00:44:04.173Z,90.86
2017-06-30T00:44:08.631Z,91.25
2017-06-30T00:44:13.002Z,91.25
2017-06-30T00:44:17.462Z,91.34
2017-06-30T00:44:21.901Z,91.15
2017-06-30T00:44:26.348Z,91.63
2017-06-30T00:44:30.683Z,91.72
2017-06-30T00:44:35.139Z,91.34
2017-06-30T00:44:39.599Z,90.96
2017-06-30T00:44:43.933Z,91.72
2017-06-30T00:44:48.382Z,91.72
2017-06-30T00:44:52.823Z,91.82
2017-06-30T00:44:57.171Z,90.86
2017-06-30T00:45:01.486Z,91.53
2017-06-30T00:45:05.921Z,91.05
2017-06-30T00:45:10.364Z,91.25
2017-06-30T00:45:14.835Z,91.25
2017-06-30T00:45:19.285Z,91.34
2017-06-30T00:45:23.732Z,90.86
2017-06-30T00:45:28.047Z,91.15
2017-06-30T00:45:32.487Z,91.05
2017-06-30T00:45:36.932Z,91.15
2017-06-30T00:45:41.434Z,91.05
2017-06-30T00:45:45.884Z,91.34
2017-06-30T00:45:50.334Z,91.34
2017-06-30T00:45:54.659Z,91.25
2017-06-30T00:45:59.128Z,91.25
2017-06-30T00:46:03.573Z,91.15
2017-06-30T00:46:07.918Z,91.15
2017-06-30T00:46:12.369Z,90.96
2017-06-30T00:46:16.805Z,91.05
2017-06-30T00:46:21.277Z,91.15
2017-06-30T00:46:25.714Z,91.05
2017-06-30T00:46:30.042Z,91.05
2017-06-30T00:46:34.503Z,91.15
2017-06-30T00:46:38.963Z,91.05
2017-06-30T00:46:43.402Z,91.15
2017-06-30T00:46:47.839Z,91.25
2017-06-30T00:46:52.283Z,91.05
2017-06-30T00:46:56.721Z,91.44
2017-06-30T00:47:01.170Z,91.44
2017-06-30T00:47:05.665Z,91.25
2017-06-30T00:47:09.992Z,91.63
2017-06-30T00:47:14.457Z,91.44
2017-06-30T00:47:18.910Z,91.44
2017-06-30T00:47:23.241Z,91.34
2017-06-30T00:47:27.700Z,91.34
2017-06-30T00:47:32.147Z,91.82
2017-06-30T00:47:36.478Z,91.44
2017-06-30T00:47:40.928Z,91.44
2017-06-30T00:47:45.372Z,91.34
2017-06-30T00:47:49.817Z,91.53
2017-06-30T00:47:54.250Z,91.53
2017-06-30T00:47:58.689Z,91.53
2017-06-30T00:48:03.016Z,91.44
2017-06-30T00:48:07.348Z,91.44
2017-06-30T00:48:11.671Z,91.53
2017-06-30T00:48:16.119Z,91.34
2017-06-30T00:48:20.571Z,91.72
2017-06-30T00:48:25.021Z,91.72
2017-06-30T00:48:29.347Z,91.34
2017-06-30T00:48:33.790Z,91.34
2017-06-30T00:48:38.253Z,91.63
2017-06-30T00:48:42.686Z,91.63
2017-06-30T00:48:47.121Z,91.53
2017-06-30T00:48:51.581Z,91.72
2017-06-30T00:48:55.904Z,91.72
2017-06-30T00:49:00.348Z,91.72
2017-06-30T00:49:04.916Z,91.72
2017-06-30T00:49:09.374Z,91.63
2017-06-30T00:49:13.840Z,91.53
2017-06-30T00:49:18.166Z,91.44
2017-06-30T00:49:22.618Z,91.53
2017-06-30T00:49:27.059Z,91.72
2017-06-30T00:49:31.514Z,91.34
2017-06-30T00:49:35.976Z,91.34
2017-06-30T00:49:40.414Z,91.44
2017-06-30T00:49:44.848Z,91.44
2017-06-30T00:49:49.177Z,91.25
2017-06-30T00:49:53.642Z,92.21
2017-06-30T00:49:58.082Z,92.01
2017-06-30T00:50:02.409Z,91.92
2017-06-30T00:50:06.612Z,91.82
2017-06-30T00:50:11.049Z,92.11
2017-06-30T00:50:15.508Z,92.01
2017-06-30T00:50:19.830Z,91.92
2017-06-30T00:50:24.278Z,92.21
2017-06-30T00:50:28.620Z,91.72
2017-06-30T00:50:33.064Z,91.92
2017-06-30T00:50:37.511Z,91.72
2017-06-30T00:50:41.956Z,91.63
2017-06-30T00:50:46.402Z,91.92
2017-06-30T00:50:50.842Z,91.72
2017-06-30T00:50:55.274Z,91.63
2017-06-30T00:50:59.722Z,91.92
2017-06-30T00:51:04.067Z,91.63
2017-06-30T00:51:08.520Z,91.92
2017-06-30T00:51:12.973Z,91.53
2017-06-30T00:51:17.426Z,92.21
2017-06-30T00:51:21.748Z,92.01
2017-06-30T00:51:26.189Z,92.3
2017-06-30T00:51:30.510Z,92.21
2017-06-30T00:51:34.845Z,92.11
2017-06-30T00:51:39.292Z,92.11
2017-06-30T00:51:43.741Z,92.01
2017-06-30T00:51:48.192Z,92.21
2017-06-30T00:51:52.643Z,92.21
2017-06-30T00:51:57.070Z,92.3
2017-06-30T00:52:01.541Z,92.11
2017-06-30T00:52:06.001Z,92.11
2017-06-30T00:52:10.332Z,92.21
2017-06-30T00:52:14.537Z,92.01
2017-06-30T00:52:18.958Z,92.78
2017-06-30T00:52:23.402Z,92.49
2017-06-30T00:52:27.836Z,92.4
2017-06-30T00:52:32.285Z,92.4
2017-06-30T00:52:36.732Z,92.58
2017-06-30T00:52:41.056Z,92.58
2017-06-30T00:52:45.510Z,92.58
2017-06-30T00:52:49.963Z,92.78
2017-06-30T00:52:54.421Z,92.49
2017-06-30T00:52:58.866Z,92.58
2017-06-30T00:53:03.205Z,92.58
2017-06-30T00:53:07.302Z,92.58
2017-06-30T00:53:11.639Z,92.49
2017-06-30T00:53:16.073Z,92.49
2017-06-30T00:53:20.398Z,92.4
2017-06-30T00:53:24.770Z,92.68
2017-06-30T00:53:29.214Z,92.49
2017-06-30T00:53:33.662Z,92.68
2017-06-30T00:53:38.100Z,92.58
2017-06-30T00:53:42.536Z,92.58
2017-06-30T00:53:47.004Z,92.58
2017-06-30T00:53:51.448Z,92.68
2017-06-30T00:53:55.882Z,92.58
2017-06-30T00:54:00.310Z,92.49
2017-06-30T00:54:04.634Z,92.49
2017-06-30T00:54:08.963Z,92.78
2017-06-30T00:54:13.285Z,92.49
2017-06-30T00:54:17.590Z,92.4
2017-06-30T00:54:22.039Z,92.58
2017-06-30T00:54:26.491Z,92.58
2017-06-30T00:54:30.836Z,92.78
2017-06-30T00:54:35.284Z,92.58
2017-06-30T00:54:39.737Z,92.58
2017-06-30T00:54:44.180Z,92.4
2017-06-30T00:54:48.495Z,92.4
2017-06-30T00:54:52.942Z,92.49
2017-06-30T00:54:57.266Z,92.4
2017-06-30T00:55:01.711Z,92.87
2017-06-30T00:55:05.927Z,92.87
2017-06-30T00:55:10.389Z,92.87
2017-06-30T00:55:14.834Z,92.68
2017-06-30T00:55:19.281Z,92.87
2017-06-30T00:55:23.744Z,92.87
2017-06-30T00:55:28.193Z,92.78
2017-06-30T00:55:32.654Z,92.87
2017-06-30T00:55:37.085Z,92.97
2017-06-30T00:55:41.538Z,92.78
2017-06-30T00:55:45.982Z,92.97
2017-06-30T00:55:50.416Z,92.68
2017-06-30T00:55:54.873Z,92.68
2017-06-30T00:55:59.328Z,92.87
2017-06-30T00:56:03.770Z,92.78
2017-06-30T00:56:07.986Z,92.68
2017-06-30T00:56:12.339Z,92.97
2017-06-30T00:56:16.659Z,92.97
2017-06-30T00:56:20.977Z,92.87
2017-06-30T00:56:25.431Z,93.07
2017-06-30T00:56:29.763Z,93.54
2017-06-30T00:56:34.216Z,92.87
2017-06-30T00:56:38.665Z,93.45
2017-06-30T00:56:43.112Z,93.16
2017-06-30T00:56:47.544Z,93.45
2017-06-30T00:56:51.991Z,92.68
2017-06-30T00:56:56.448Z,92.78
2017-06-30T00:57:00.907Z,92.97
2017-06-30T00:57:05.318Z,92.58